createdAt,value
2022-10-25T00:01:46.903Z,9.58
2022-10-25T00:04:15.164Z,9.63
2022-10-25T00:06:42.521Z,9.60
2022-10-25T00:09:09.449Z,9.51
2022-10-25T00:11:39.321Z,9.47
2022-10-25T00:14:07.585Z,9.48
2022-10-25T00:16:38.473Z,9.42
2022-10-25T00:19:05.898Z,9.46
2022-10-25T00:21:32.612Z,9.55
2022-10-25T00:23:59.433Z,9.53
2022-10-25T00:26:26.181Z,9.56
2022-10-25T00:28:55.206Z,9.48
2022-10-25T00:31:23.640Z,9.49
2022-10-25T00:33:50.783Z,9.42
2022-10-25T00:36:23.796Z,9.49
2022-10-25T00:38:51.821Z,9.53
2022-10-25T00:41:22.791Z,9.48
2022-10-25T00:43:56.208Z,9.59
2022-10-25T00:46:31.744Z,9.52
2022-10-25T00:49:17.876Z,9.51
2022-10-25T00:51:56.382Z,9.30
2022-10-25T00:54:41.820Z,9.42
2022-10-25T00:57:33.578Z,9.41
2022-10-25T01:00:02.152Z,9.45
2022-10-25T01:02:29.048Z,9.46
2022-10-25T01:04:56.055Z,9.47
2022-10-25T01:07:22.782Z,9.53
2022-10-25T01:09:51.449Z,9.55
2022-10-25T01:12:20.286Z,9.60
2022-10-25T01:14:50.064Z,9.62
2022-10-25T01:18:07.178Z,9.59
2022-10-25T01:21:05.596Z,9.54
2022-10-25T01:24:07.914Z,9.45
2022-10-25T01:27:00.865Z,9.60
2022-10-25T01:29:45.396Z,9.54
2022-10-25T01:32:44.181Z,9.47
2022-10-25T01:35:37.134Z,9.45
2022-10-25T01:38:51.861Z,9.42
2022-10-25T01:41:48.712Z,9.46
2022-10-25T01:45:13.717Z,9.47
2022-10-25T01:48:04.108Z,9.32
2022-10-25T01:50:36.338Z,9.33
2022-10-25T01:53:03.148Z,9.33
2022-10-25T01:55:51.645Z,9.39
2022-10-25T01:58:46.829Z,9.40
2022-10-25T02:01:59.943Z,9.43
2022-10-25T02:05:02.526Z,9.41
2022-10-25T02:07:35.828Z,9.40
2022-10-25T02:10:29.355Z,9.21
2022-10-25T02:13:04.702Z,9.23
2022-10-25T02:15:40.861Z,9.24
2022-10-25T02:18:14.784Z,9.15
2022-10-25T02:20:47.007Z,9.12
2022-10-25T02:23:15.449Z,9.17
2022-10-25T02:25:43.577Z,9.04
2022-10-25T02:28:13.208Z,9.11
2022-10-25T02:30:42.980Z,9.15
2022-10-25T02:33:11.265Z,9.08
2022-10-25T02:35:38.149Z,8.96
2022-10-25T02:38:05.117Z,8.93
2022-10-25T02:40:32.136Z,8.99
2022-10-25T02:42:58.933Z,8.98
2022-10-25T02:45:25.722Z,9.00
2022-10-25T02:47:52.521Z,8.90
2022-10-25T02:50:19.425Z,9.07
2022-10-25T02:52:46.682Z,9.04
2022-10-25T02:55:13.649Z,9.01
2022-10-25T02:57:40.383Z,9.04
2022-10-25T03:00:08.752Z,9.05
2022-10-25T03:02:35.625Z,9.01
2022-10-25T03:05:02.416Z,8.96
2022-10-25T03:07:29.174Z,9.00
2022-10-25T03:09:55.913Z,9.08
2022-10-25T03:12:22.653Z,9.04
2022-10-25T03:14:49.447Z,8.99
2022-10-25T03:17:16.249Z,9.00
2022-10-25T03:19:42.957Z,9.08
2022-10-25T03:22:09.782Z,9.13
2022-10-25T03:24:36.528Z,9.12
2022-10-25T03:27:03.369Z,9.08
2022-10-25T03:29:30.085Z,9.02
2022-10-25T03:31:56.941Z,9.02
2022-10-25T03:34:23.708Z,9.15
2022-10-25T03:36:50.496Z,9.08
2022-10-25T03:39:17.301Z,9.13
2022-10-25T03:41:44.028Z,9.12
2022-10-25T03:44:10.782Z,9.21
2022-10-25T03:46:37.496Z,9.17
2022-10-25T03:49:04.278Z,9.18
2022-10-25T03:51:31.034Z,9.08
2022-10-25T03:53:57.725Z,9.09
2022-10-25T03:56:24.452Z,9.05
2022-10-25T03:58:51.424Z,9.18
2022-10-25T04:01:18.261Z,9.23
2022-10-25T04:03:45.426Z,9.26
2022-10-25T04:06:12.214Z,9.23
2022-10-25T04:08:39.266Z,9.25
2022-10-25T04:11:06.016Z,9.23
2022-10-25T04:13:32.847Z,9.29
2022-10-25T04:15:59.610Z,9.29
2022-10-25T04:18:26.325Z,9.39
2022-10-25T04:20:53.040Z,9.39
2022-10-25T04:23:19.773Z,9.44
2022-10-25T04:25:46.544Z,9.35
2022-10-25T04:28:13.304Z,9.50
2022-10-25T04:30:40.125Z,9.49
2022-10-25T04:33:07.589Z,9.58
2022-10-25T04:35:34.401Z,9.63
2022-10-25T04:38:01.128Z,9.67
2022-10-25T04:40:27.876Z,9.70
2022-10-25T04:42:54.644Z,9.74
2022-10-25T04:45:21.350Z,9.72
2022-10-25T04:47:48.165Z,9.69
2022-10-25T04:50:14.978Z,9.73
2022-10-25T04:52:43.901Z,9.67
2022-10-25T04:55:10.788Z,9.71
2022-10-25T04:57:37.577Z,9.70
2022-10-25T05:00:04.876Z,9.74
2022-10-25T05:02:31.662Z,9.86
2022-10-25T05:04:58.405Z,9.81
2022-10-25T05:07:26.266Z,9.94
2022-10-25T05:09:52.962Z,9.89
2022-10-25T05:12:19.803Z,9.95
2022-10-25T05:14:46.582Z,9.93
2022-10-25T05:17:13.373Z,10.01
2022-10-25T05:19:40.113Z,9.94
2022-10-25T05:22:06.874Z,9.93
2022-10-25T05:24:34.085Z,9.93
2022-10-25T05:27:00.816Z,9.93
2022-10-25T05:29:27.592Z,9.82
2022-10-25T05:31:54.429Z,9.97
2022-10-25T05:34:21.224Z,9.91
2022-10-25T05:36:47.931Z,9.91
2022-10-25T05:39:14.897Z,9.86
2022-10-25T05:41:41.732Z,9.83
2022-10-25T05:44:08.654Z,9.88
2022-10-25T05:46:35.388Z,9.92
2022-10-25T05:49:02.641Z,9.94
2022-10-25T05:51:36.322Z,9.95
2022-10-25T05:54:10.384Z,9.95
2022-10-25T05:56:37.799Z,9.87
2022-10-25T05:59:10.393Z,9.93
2022-10-25T06:01:47.166Z,9.90
2022-10-25T06:04:15.896Z,9.84
2022-10-25T06:06:45.289Z,9.87
2022-10-25T06:09:13.188Z,9.97
2022-10-25T06:11:40.388Z,10.05
2022-10-25T06:14:07.527Z,10.10
2022-10-25T06:16:34.473Z,10.06
2022-10-25T06:19:01.367Z,10.11
2022-10-25T06:21:29.649Z,10.18
2022-10-25T06:23:58.527Z,10.20
2022-10-25T06:26:29.414Z,10.15
2022-10-25T06:28:59.658Z,10.24
2022-10-25T06:31:27.386Z,10.34
2022-10-25T06:33:54.123Z,10.30
2022-10-25T06:36:23.445Z,10.39
2022-10-25T06:38:53.122Z,10.42
2022-10-25T06:41:24.107Z,10.45
2022-10-25T06:43:51.962Z,10.43
2022-10-25T06:46:24.329Z,10.43
2022-10-25T06:48:53.081Z,10.38
2022-10-25T06:51:21.702Z,10.50
2022-10-25T06:53:54.994Z,10.43
2022-10-25T06:56:22.196Z,10.52
2022-10-25T06:58:49.182Z,10.53
2022-10-25T07:01:18.686Z,10.62
2022-10-25T07:03:46.314Z,10.67
2022-10-25T07:06:18.977Z,10.70
2022-10-25T07:08:47.369Z,10.69
2022-10-25T07:11:17.719Z,10.72
2022-10-25T07:13:45.168Z,10.70
2022-10-25T07:16:16.073Z,10.77
2022-10-25T07:18:44.364Z,10.79
2022-10-25T07:21:14.814Z,10.84
2022-10-25T07:23:42.816Z,10.93
2022-10-25T07:26:23.865Z,10.99
2022-10-25T07:28:53.016Z,10.89
2022-10-25T07:31:32.958Z,11.00
2022-10-25T07:34:02.882Z,11.05
2022-10-25T07:36:30.418Z,11.13
2022-10-25T07:38:57.729Z,11.07
2022-10-25T07:41:25.650Z,11.10
2022-10-25T07:43:52.519Z,11.13
2022-10-25T07:46:19.292Z,11.16
2022-10-25T07:48:46.181Z,11.24
2022-10-25T07:51:16.446Z,11.33
2022-10-25T07:53:43.351Z,11.28
2022-10-25T07:56:19.029Z,11.50
2022-10-25T07:58:49.323Z,11.35
2022-10-25T08:01:22.942Z,11.40
2022-10-25T08:03:51.309Z,11.52
2022-10-25T08:06:18.779Z,11.53
2022-10-25T08:08:45.687Z,11.66
2022-10-25T08:11:12.526Z,11.66
2022-10-25T08:13:39.942Z,11.67
2022-10-25T08:16:08.053Z,11.63
2022-10-25T08:18:35.469Z,11.71
2022-10-25T08:21:03.822Z,11.87
2022-10-25T08:23:32.720Z,11.93
2022-10-25T08:26:02.748Z,12.04
2022-10-25T08:28:31.573Z,12.16
2022-10-25T08:31:01.212Z,12.18
2022-10-25T08:33:28.903Z,12.24
2022-10-25T08:35:55.668Z,12.38
2022-10-25T08:38:22.519Z,12.44
2022-10-25T08:41:14.990Z,12.57
2022-10-25T08:44:35.164Z,12.65
2022-10-25T08:47:11.817Z,12.72
2022-10-25T08:49:45.115Z,12.83
2022-10-25T08:52:23.786Z,12.80
2022-10-25T08:54:50.848Z,12.97
2022-10-25T08:57:26.910Z,13.14
2022-10-25T09:00:00.688Z,13.22
2022-10-25T09:02:56.836Z,13.09
2022-10-25T09:06:25.151Z,13.39
2022-10-25T09:09:05.998Z,13.53
2022-10-25T09:12:13.161Z,13.81
2022-10-25T09:14:48.179Z,14.04
2022-10-25T09:17:31.677Z,14.23
2022-10-25T09:20:20.892Z,14.49
2022-10-25T09:22:51.802Z,14.67
2022-10-25T09:25:26.034Z,14.63
2022-10-25T09:28:00.921Z,14.66
2022-10-25T09:30:30.800Z,14.73
2022-10-25T09:33:08.103Z,14.68
2022-10-25T09:35:53.593Z,14.67
2022-10-25T09:38:59.117Z,14.77
2022-10-25T09:41:28.747Z,15.07
2022-10-25T09:44:02.200Z,15.23
2022-10-25T09:47:05.324Z,15.37
2022-10-25T09:50:04.060Z,15.66
2022-10-25T09:52:55.182Z,15.72
2022-10-25T09:55:56.305Z,15.70
2022-10-25T09:58:30.522Z,15.69
2022-10-25T10:01:01.428Z,15.61
2022-10-25T10:03:31.048Z,15.79
2022-10-25T10:06:03.453Z,15.68
2022-10-25T10:08:35.560Z,15.79
2022-10-25T10:11:04.997Z,15.85
2022-10-25T10:13:43.052Z,15.99
2022-10-25T10:16:22.237Z,16.03
2022-10-25T10:18:49.054Z,15.84
2022-10-25T10:21:20.428Z,16.04
2022-10-25T10:24:05.676Z,16.27
2022-10-25T10:26:49.198Z,16.41
2022-10-25T10:29:23.522Z,16.35
2022-10-25T10:32:00.901Z,16.18
2022-10-25T10:34:57.880Z,16.24
2022-10-25T10:37:30.448Z,16.38
2022-10-25T10:40:25.390Z,16.47
2022-10-25T10:42:53.739Z,16.57
2022-10-25T10:45:22.681Z,16.49
2022-10-25T10:47:52.382Z,16.81
2022-10-25T10:50:22.200Z,17.01
2022-10-25T10:53:07.698Z,17.12
2022-10-25T10:55:38.350Z,17.24
2022-10-25T10:58:25.822Z,17.29
2022-10-25T11:01:04.453Z,17.09
2022-10-25T11:03:59.102Z,17.35
2022-10-25T11:06:34.659Z,17.35
2022-10-25T11:09:10.818Z,17.21
2022-10-25T11:11:37.750Z,17.24
2022-10-25T11:14:16.610Z,17.39
2022-10-25T11:17:11.370Z,17.55
2022-10-25T11:19:57.197Z,17.63
2022-10-25T11:22:49.308Z,17.81
2022-10-25T11:25:32.733Z,17.97
2022-10-25T11:28:39.233Z,18.01
2022-10-25T11:31:20.907Z,18.05
2022-10-25T11:34:47.946Z,18.21
2022-10-25T11:37:29.068Z,18.28
2022-10-25T11:40:15.774Z,18.37
2022-10-25T11:43:10.227Z,18.61
2022-10-25T11:45:48.572Z,18.90
2022-10-25T11:48:21.255Z,18.78
2022-10-25T11:51:14.043Z,18.65
2022-10-25T11:53:48.965Z,18.93
2022-10-25T11:56:33.351Z,18.86
2022-10-25T11:59:39.377Z,18.90
2022-10-25T12:02:20.150Z,18.72
2022-10-25T12:05:42.626Z,18.77
2022-10-25T12:08:36.568Z,18.72
2022-10-25T12:11:13.735Z,18.75
2022-10-25T12:13:49.454Z,18.61
2022-10-25T12:16:18.560Z,18.56
2022-10-25T12:18:49.109Z,18.67
2022-10-25T12:21:22.674Z,18.52
2022-10-25T12:23:52.258Z,18.12
2022-10-25T12:26:33.458Z,17.98
2022-10-25T12:29:04.545Z,17.81
2022-10-25T12:31:40.882Z,17.87
2022-10-25T12:34:32.237Z,17.79
2022-10-25T12:37:08.700Z,17.76
2022-10-25T12:39:46.589Z,17.83
2022-10-25T12:42:20.049Z,18.05
2022-10-25T12:45:11.845Z,18.43
2022-10-25T12:48:07.430Z,18.60
2022-10-25T12:50:46.519Z,18.76
2022-10-25T12:53:52.609Z,18.83
2022-10-25T12:56:34.355Z,18.99
2022-10-25T12:59:45.829Z,19.17
2022-10-25T13:02:50.445Z,19.28
2022-10-25T13:05:39.522Z,19.30
2022-10-25T13:08:07.286Z,19.23
2022-10-25T13:10:44.352Z,19.42
2022-10-25T13:13:22.789Z,19.45
2022-10-25T13:15:59.159Z,19.71
2022-10-25T13:18:34.611Z,19.83
2022-10-25T13:21:08.290Z,19.88
2022-10-25T13:23:44.196Z,20.06
2022-10-25T13:26:25.799Z,20.16
2022-10-25T13:29:02.478Z,20.23
2022-10-25T13:31:35.003Z,20.47
2022-10-25T13:34:13.802Z,20.55
2022-10-25T13:36:49.766Z,20.54
2022-10-25T13:40:05.189Z,20.52
2022-10-25T13:42:37.818Z,20.61
2022-10-25T13:45:04.424Z,20.11
2022-10-25T13:47:43.880Z,20.00
2022-10-25T13:50:21.734Z,19.95
2022-10-25T13:52:56.806Z,19.96
2022-10-25T13:55:29.448Z,20.02
2022-10-25T13:57:58.944Z,20.13
2022-10-25T14:00:53.667Z,20.03
2022-10-25T14:03:34.646Z,19.88
2022-10-25T14:06:01.446Z,19.67
2022-10-25T14:08:54.936Z,19.52
2022-10-25T14:11:47.251Z,19.54
2022-10-25T14:14:29.128Z,19.64
2022-10-25T14:17:37.123Z,19.59
2022-10-25T14:20:18.703Z,19.90
2022-10-25T14:23:18.973Z,19.85
2022-10-25T14:25:59.717Z,19.99
2022-10-25T14:28:31.617Z,19.94
2022-10-25T14:31:04.781Z,20.12
2022-10-25T14:33:49.628Z,20.23
2022-10-25T14:36:37.959Z,20.25
2022-10-25T14:39:17.555Z,20.38
2022-10-25T14:41:56.229Z,20.58
2022-10-25T14:44:28.655Z,20.73
2022-10-25T14:46:58.249Z,20.60
2022-10-25T14:49:26.330Z,20.76
2022-10-25T14:52:00.512Z,20.74
2022-10-25T14:54:34.296Z,20.75
2022-10-25T14:57:05.041Z,20.55
2022-10-25T14:59:44.971Z,20.39
2022-10-25T15:02:20.060Z,20.16
2022-10-25T15:04:50.527Z,19.98
2022-10-25T15:07:23.201Z,19.76
2022-10-25T15:09:55.366Z,19.65
2022-10-25T15:12:26.035Z,19.50
2022-10-25T15:14:59.296Z,19.46
2022-10-25T15:17:29.538Z,19.38
2022-10-25T15:20:14.053Z,19.33
2022-10-25T15:22:45.502Z,19.15
2022-10-25T15:25:24.448Z,18.99
2022-10-25T15:27:56.542Z,18.73
2022-10-25T15:30:48.105Z,18.56
2022-10-25T15:33:27.994Z,18.38
2022-10-25T15:35:57.150Z,18.19
2022-10-25T15:38:54.334Z,18.01
2022-10-25T15:41:19.702Z,17.86
2022-10-25T15:43:46.449Z,17.66
2022-10-25T15:46:34.143Z,17.53
2022-10-25T15:49:04.345Z,17.26
2022-10-25T15:51:33.509Z,17.14
2022-10-25T15:54:00.218Z,16.85
2022-10-25T15:56:27.054Z,16.68
2022-10-25T15:58:53.830Z,16.55
2022-10-25T16:01:21.622Z,16.35
2022-10-25T16:03:48.521Z,16.26
2022-10-25T16:06:15.313Z,16.17
2022-10-25T16:08:42.620Z,15.98
2022-10-25T16:11:19.391Z,15.75
2022-10-25T16:13:49.210Z,15.62
2022-10-25T16:16:44.841Z,15.52
2022-10-25T16:19:16.985Z,15.46
2022-10-25T16:21:44.481Z,15.21
2022-10-25T16:24:12.314Z,15.22
2022-10-25T16:26:43.697Z,15.06
2022-10-25T16:29:16.319Z,15.00
2022-10-25T16:31:43.825Z,14.89
2022-10-25T16:34:11.122Z,14.73
2022-10-25T16:36:38.229Z,14.68
2022-10-25T16:39:06.450Z,14.42
2022-10-25T16:41:33.549Z,14.31
2022-10-25T16:44:00.561Z,14.29
2022-10-25T16:46:27.463Z,14.16
2022-10-25T16:48:55.947Z,14.04
2022-10-25T16:51:25.893Z,14.08
2022-10-25T16:53:52.609Z,14.00
2022-10-25T16:56:19.445Z,13.82
2022-10-25T16:58:46.342Z,13.87
2022-10-25T17:01:34.435Z,13.76
2022-10-25T17:04:04.244Z,13.63
2022-10-25T17:06:46.241Z,13.62
2022-10-25T17:09:13.114Z,13.47
2022-10-25T17:11:39.848Z,13.43
2022-10-25T17:14:06.877Z,13.36
2022-10-25T17:16:33.805Z,13.32
2022-10-25T17:19:00.576Z,13.17
2022-10-25T17:21:28.429Z,13.16
2022-10-25T17:23:56.655Z,13.05
2022-10-25T17:26:23.472Z,12.80
2022-10-25T17:28:50.355Z,12.76
2022-10-25T17:31:17.264Z,12.61
2022-10-25T17:33:44.002Z,12.68
2022-10-25T17:36:14.890Z,12.48
2022-10-25T17:38:42.314Z,12.46
2022-10-25T17:41:13.088Z,12.47
2022-10-25T17:43:41.619Z,12.45
2022-10-25T17:46:16.677Z,12.38
2022-10-25T17:48:43.441Z,12.16
2022-10-25T17:51:13.207Z,12.11
2022-10-25T17:53:40.269Z,12.10
2022-10-25T17:56:15.446Z,11.86
2022-10-25T17:58:44.271Z,11.94
2022-10-25T18:01:14.604Z,11.95
2022-10-25T18:03:41.467Z,11.90
2022-10-25T18:06:12.426Z,11.90
2022-10-25T18:08:39.801Z,11.70
2022-10-25T18:11:19.433Z,11.67
2022-10-25T18:13:46.285Z,11.63
2022-10-25T18:16:13.085Z,11.69
2022-10-25T18:18:40.007Z,11.71
2022-10-25T18:21:13.297Z,11.48
2022-10-25T18:23:41.553Z,11.31
2022-10-25T18:26:11.027Z,11.36
2022-10-25T18:28:38.521Z,11.17
2022-10-25T18:31:11.668Z,11.21
2022-10-25T18:33:41.325Z,11.28
2022-10-25T18:36:17.950Z,11.25
2022-10-25T18:38:46.389Z,11.13
2022-10-25T18:41:21.978Z,11.02
2022-10-25T18:43:48.734Z,11.00
2022-10-25T18:46:15.942Z,11.05
2022-10-25T18:48:42.725Z,10.97
2022-10-25T18:51:12.226Z,10.89
2022-10-25T18:53:39.683Z,10.82
2022-10-25T18:56:12.241Z,10.78
2022-10-25T18:58:39.885Z,10.61
2022-10-25T19:01:12.799Z,10.47
2022-10-25T19:03:39.917Z,10.32
2022-10-25T19:06:07.768Z,10.30
2022-10-25T19:08:35.773Z,10.37
2022-10-25T19:11:08.545Z,10.34
2022-10-25T19:13:35.907Z,10.31
2022-10-25T19:16:03.201Z,10.34
2022-10-25T19:18:32.094Z,10.31
2022-10-25T19:21:05.392Z,10.29
2022-10-25T19:23:33.321Z,10.23
2022-10-25T19:26:06.934Z,10.24
2022-10-25T19:28:34.801Z,10.22
2022-10-25T19:31:10.928Z,10.22
2022-10-25T19:33:37.798Z,10.12
2022-10-25T19:36:10.047Z,9.99
2022-10-25T19:38:38.250Z,9.87
2022-10-25T19:41:08.343Z,9.85
2022-10-25T19:43:36.255Z,9.73
2022-10-25T19:46:07.078Z,9.83
2022-10-25T19:48:34.874Z,9.83
2022-10-25T19:51:07.270Z,9.80
2022-10-25T19:53:34.128Z,9.76
2022-10-25T19:56:04.361Z,9.74
2022-10-25T19:58:31.101Z,9.68
2022-10-25T20:01:16.293Z,9.76
2022-10-25T20:03:45.813Z,9.68
2022-10-25T20:06:21.710Z,9.65
2022-10-25T20:08:51.260Z,9.58
2022-10-25T20:11:18.975Z,9.64
2022-10-25T20:13:46.240Z,9.64
2022-10-25T20:16:14.217Z,9.68
2022-10-25T20:18:42.545Z,9.64
2022-10-25T20:21:13.599Z,9.66
2022-10-25T20:23:41.825Z,9.65
2022-10-25T20:26:15.461Z,9.65
2022-10-25T20:28:43.267Z,9.56
2022-10-25T20:31:11.047Z,9.60
2022-10-25T20:33:38.770Z,9.57
2022-10-25T20:36:07.841Z,9.47
2022-10-25T20:38:36.107Z,9.35
2022-10-25T20:41:12.063Z,9.27
2022-10-25T20:43:39.692Z,9.31
2022-10-25T20:46:08.306Z,9.35
2022-10-25T20:48:35.715Z,9.38
2022-10-25T20:51:06.831Z,9.41
2022-10-25T20:53:35.857Z,9.34
2022-10-25T20:56:02.579Z,9.27
2022-10-25T20:58:29.318Z,9.19
2022-10-25T21:00:57.717Z,9.21
2022-10-25T21:03:26.842Z,9.20
2022-10-25T21:06:06.039Z,9.14
2022-10-25T21:08:33.963Z,9.14
2022-10-25T21:11:03.540Z,9.13
2022-10-25T21:13:32.782Z,9.22
2022-10-25T21:16:05.417Z,9.18
2022-10-25T21:18:32.117Z,9.20
2022-10-25T21:21:05.597Z,9.14
2022-10-25T21:23:32.418Z,9.29
2022-10-25T21:26:05.574Z,9.22
2022-10-25T21:28:36.724Z,9.26
2022-10-25T21:31:10.432Z,9.21
2022-10-25T21:33:37.651Z,9.25
2022-10-25T21:36:10.154Z,9.28
2022-10-25T21:38:37.101Z,9.31
2022-10-25T21:41:12.740Z,9.36
2022-10-25T21:43:50.677Z,9.43
2022-10-25T21:46:20.575Z,9.45
2022-10-25T21:48:50.610Z,9.48
2022-10-25T21:51:24.328Z,9.55
2022-10-25T21:56:37.689Z,9.61
2022-10-25T21:59:04.450Z,9.56
2022-10-25T22:01:31.829Z,9.54
2022-10-25T22:03:58.890Z,9.50
2022-10-25T22:06:27.439Z,9.51
2022-10-25T22:08:55.779Z,9.60
2022-10-25T22:11:26.502Z,9.55
2022-10-25T22:14:04.891Z,9.63
2022-10-25T22:16:33.150Z,9.66
2022-10-25T22:19:03.929Z,9.65
2022-10-25T22:21:38.007Z,9.58
2022-10-25T22:24:08.554Z,9.49
2022-10-25T22:26:37.952Z,9.59
2022-10-25T22:29:05.350Z,9.62
2022-10-25T22:31:32.172Z,9.61
2022-10-25T22:34:02.139Z,9.68
2022-10-25T22:36:32.425Z,9.69
2022-10-25T22:38:59.578Z,9.69
2022-10-25T22:41:28.529Z,9.64
2022-10-25T22:43:55.672Z,9.70
2022-10-25T22:46:34.696Z,9.75
2022-10-25T22:49:08.963Z,9.72
2022-10-25T22:51:37.536Z,9.69
2022-10-25T22:54:04.882Z,9.71
2022-10-25T22:56:32.032Z,9.75
2022-10-25T22:59:02.016Z,9.80
2022-10-25T23:01:40.421Z,9.82
2022-10-25T23:04:09.583Z,9.75
2022-10-25T23:06:40.658Z,9.79
2022-10-25T23:09:10.100Z,9.78
2022-10-25T23:11:39.597Z,9.81
2022-10-25T23:14:07.530Z,9.83
2022-10-25T23:16:34.610Z,9.81
2022-10-25T23:19:01.413Z,9.79
2022-10-25T23:21:30.318Z,9.80
2022-10-25T23:23:59.074Z,9.76
2022-10-25T23:26:33.168Z,9.84
2022-10-25T23:29:01.073Z,9.86
2022-10-25T23:31:29.375Z,9.92
2022-10-25T23:33:58.758Z,9.69
2022-10-25T23:36:28.699Z,9.95
2022-10-25T23:38:56.700Z,9.96
2022-10-25T23:41:23.875Z,9.94
2022-10-25T23:43:51.003Z,9.93
2022-10-25T23:46:17.760Z,9.88
2022-10-25T23:48:44.509Z,9.94
2022-10-25T23:51:16.018Z,9.91
2022-10-25T23:53:43.518Z,9.94
2022-10-25T23:56:12.626Z,9.97
2022-10-25T23:58:39.710Z,9.96
